First Coast — WCR9075 — position and weather

sailwx.info

Track history (hours):
 
Tides and Currents Weather Stations Pressure Air Temp Water Temp Dewpoint Dewpoint Depression Visibility Wind Speed Wind Dir Waves Ship Positions

First Coast

Owner: DANN MARINE TOWING L C, CHESAPEAKE CITY, MD. More information available from US FCC via Universal Licensing System and Coast Guard Vessel Documentation Center.

Last reported at 2014-Oct-12 09:33 UTC. Time now 2014-Oct-20 18:04 UTC.
Position N 39°11' W 076°27'.
Warning: this ship's position is 8 days out of date.

; draft 3.5 m.

Type: Tug. MMSI: 367024280.

Date/timePositionNaut miles runAvg speedWind from/ knotsBaromVisibWave heightAir tempDewpointWater temp
2014-Oct-12 09:33N 39°11' W 076°27'7 6.7
2014-Oct-12 08:33N 39°13' W 076°35'0 0.0
2014-Oct-12 05:33N 39°13' W 076°35'0 0.0
2014-Oct-12 04:33N 39°13' W 076°35'0 0.0
2014-Oct-12 03:33N 39°13' W 076°35'0 0.0
2014-Oct-12 02:33N 39°13' W 076°35'0 0.0
2014-Oct-12 01:33N 39°13' W 076°35'0 0.0
2014-Oct-12 00:33N 39°13' W 076°35'0 0.0
2014-Oct-11 23:33N 39°13' W 076°35'0 0.0
2014-Oct-11 22:33N 39°13' W 076°35'0 0.0
2014-Oct-11 21:33N 39°13' W 076°35'0 0.0
2014-Oct-11 20:33N 39°13' W 076°35'0 0.1
2014-Oct-11 19:33N 39°13' W 076°35'5 4.8
2014-Oct-11 18:33N 39°12' W 076°29'  
2014-Oct-06 21:33N 39°11' W 076°26'7 6.5
2014-Oct-06 20:33N 39°13' W 076°34'1 0.5
2014-Oct-06 19:33N 39°13' W 076°35'0 0.0
2014-Oct-06 18:33N 39°13' W 076°35'0 0.0
2014-Oct-06 17:33N 39°13' W 076°35'0 0.0
2014-Oct-06 16:33N 39°13' W 076°35'0 0.0
2014-Oct-06 15:33N 39°13' W 076°35'0 0.0
2014-Oct-06 14:33N 39°13' W 076°35'0 0.0
2014-Oct-06 13:33N 39°13' W 076°35'0 0.0
2014-Oct-06 12:33N 39°13' W 076°35'0 0.0
2014-Oct-06 11:33N 39°13' W 076°35'1 1.0
2014-Oct-06 10:33N 39°13' W 076°33'3 3.4
2014-Oct-06 09:33N 39°12' W 076°29'6 5.9
2014-Oct-06 08:33N 39°10' W 076°22'6 4.8
2014-Oct-06 07:15N 39°13' W 076°15'  
Track history (hours):
 
Tides and Currents Weather Stations Pressure Air Temp Water Temp Dewpoint Dewpoint Depression Visibility Wind Speed Wind Dir Waves Ship Positions

First Coast

Owner: DANN MARINE TOWING L C, CHESAPEAKE CITY, MD. More information available from US FCC via Universal Licensing System and Coast Guard Vessel Documentation Center.

Last reported at 2014-Oct-12 09:33 UTC. Time now 2014-Oct-20 18:04 UTC.
Position N 39°11' W 076°27'.
Warning: this ship's position is 8 days out of date.

; draft 3.5 m.

Type: Tug. MMSI: 367024280.

Date/timePositionNaut miles runAvg speedWind from/ knotsBaromVisibWave heightAir tempDewpointWater temp
2014-Oct-12 09:33N 39°11' W 076°27'7 6.7
2014-Oct-12 08:33N 39°13' W 076°35'0 0.0
2014-Oct-12 05:33N 39°13' W 076°35'0 0.0
2014-Oct-12 04:33N 39°13' W 076°35'0 0.0
2014-Oct-12 03:33N 39°13' W 076°35'0 0.0
2014-Oct-12 02:33N 39°13' W 076°35'0 0.0
2014-Oct-12 01:33N 39°13' W 076°35'0 0.0
2014-Oct-12 00:33N 39°13' W 076°35'0 0.0
2014-Oct-11 23:33N 39°13' W 076°35'0 0.0
2014-Oct-11 22:33N 39°13' W 076°35'0 0.0
2014-Oct-11 21:33N 39°13' W 076°35'0 0.0
2014-Oct-11 20:33N 39°13' W 076°35'0 0.1
2014-Oct-11 19:33N 39°13' W 076°35'5 4.8
2014-Oct-11 18:33N 39°12' W 076°29'  
2014-Oct-06 21:33N 39°11' W 076°26'7 6.5
2014-Oct-06 20:33N 39°13' W 076°34'1 0.5
2014-Oct-06 19:33N 39°13' W 076°35'0 0.0
2014-Oct-06 18:33N 39°13' W 076°35'0 0.0
2014-Oct-06 17:33N 39°13' W 076°35'0 0.0
2014-Oct-06 16:33N 39°13' W 076°35'0 0.0
2014-Oct-06 15:33N 39°13' W 076°35'0 0.0
2014-Oct-06 14:33N 39°13' W 076°35'0 0.0
2014-Oct-06 13:33N 39°13' W 076°35'0 0.0
2014-Oct-06 12:33N 39°13' W 076°35'0 0.0
2014-Oct-06 11:33N 39°13' W 076°35'1 1.0
2014-Oct-06 10:33N 39°13' W 076°33'3 3.4
2014-Oct-06 09:33N 39°12' W 076°29'6 5.9
2014-Oct-06 08:33N 39°10' W 076°22'6 4.8
2014-Oct-06 07:15N 39°13' W 076°15'  

Dump ship's entire track history